SHHF weather

Hospital FACH Heliport
Santiago, Santiago Metropolitan Region, Chile

Public forecast

Using degrees Celsius for public forecast. Weather courtesy of forecast.io.

METAR (pilot weather report)

Report is more than 6 hours old.

Closest report is Eulogio Sánchez Airport, 3.9 nm (7.2 km) S. Retrieved 2019/09/14 22:00 UTC (11 hours ago):

SCTB 142200Z 21004KT 8000 NSC 16/06 Q1016

TAF (pilot weather forecast)

Closest forecast is Comodoro Arturo Merino Benítez International Airport, 12.2 nm (22.5 km) W. Retrieved 2019/09/15 06:00 UTC (3 hours ago):

TAF SCEL 150437Z 1506/1606 15004KT 8000 FEW150 BKN200 TX17/1518Z TN07/1511Z TEMPO 1510/1514 4000 BR SCT030 BKN120 BECMG 1516/1518 17008KT 6000 SCT050 BKN100 TEMPO 1521/1600 22013KT 8000 -SHRA FEW020 BKN050 OVC080 BECMG 1602/1604 20008KT 9999 NSW BKN050